Time;durP1;ratioP1;P1;durP2;ratioP2;P2;SDS_P1;SDS_P2;PMS_P1;PMS_P2;Temp;Humidity;BMP_temperature;BMP_pressure;BME280_temperature;BME280_humidity;BME280_pressure;Samples;Min_cycle;Max_cycle;Signal;HPM_P1;HPM_P2
2023/09/27 00:02:42;;;;;;;36.45;28.02;;;17.80;99.90;;;;;;4996911;28;20305;-71
2023/09/27 00:05:32;;;;;;;36.58;29.25;;;17.80;99.90;;;;;;5003113;28;20257;-71
2023/09/27 00:08:21;;;;;;;35.35;28.30;;;17.70;99.90;;;;;;5009419;28;20504;-70
2023/09/27 00:11:10;;;;;;;34.42;27.67;;;17.70;99.90;;;;;;5011384;28;20254;-70
2023/09/27 00:13:58;;;;;;;35.50;29.10;;;17.70;99.90;;;;;;5010473;28;20233;-69
2023/09/27 00:16:49;;;;;;;38.63;29.17;;;17.60;99.90;;;;;;4991801;28;20238;-73
2023/09/27 00:19:41;;;;;;;36.53;28.92;;;17.70;99.90;;;;;;4996153;28;20237;-72
2023/09/27 00:22:30;;;;;;;34.58;29.25;;;17.70;99.90;;;;;;5002517;28;20233;-71
2023/09/27 00:25:19;;;;;;;33.97;28.95;;;17.70;99.90;;;;;;5000262;28;20226;-70
2023/09/27 00:28:08;;;;;;;37.38;30.10;;;17.60;99.90;;;;;;5009680;28;20863;-69
2023/09/27 00:30:57;;;;;;;38.05;28.75;;;17.70;99.90;;;;;;5007847;28;20737;-70
2023/09/27 00:33:46;;;;;;;34.60;28.42;;;17.60;99.90;;;;;;4998955;28;20790;-71
2023/09/27 00:36:37;;;;;;;34.60;28.55;;;17.60;99.90;;;;;;4998191;28;20234;-71
2023/09/27 00:39:25;;;;;;;32.25;28.45;;;17.60;99.90;;;;;;4992255;28;20222;-71
2023/09/27 00:42:14;;;;;;;35.10;28.42;;;17.60;99.90;;;;;;5013322;28;20321;-70
2023/09/27 00:45:04;;;;;;;36.78;28.17;;;17.60;99.90;;;;;;5011400;28;20234;-70
2023/09/27 00:47:53;;;;;;;37.72;29.33;;;17.60;99.90;;;;;;5009295;28;20305;-70
2023/09/27 00:50:42;;;;;;;36.47;29.23;;;17.60;99.90;;;;;;5001028;28;20221;-71
2023/09/27 00:53:34;;;;;;;34.42;28.90;;;17.50;99.90;;;;;;5000697;28;20269;-67
2023/09/27 00:56:23;;;;;;;37.22;29.25;;;17.50;99.90;;;;;;4995790;28;20899;-71
2023/09/27 00:59:13;;;;;;;33.15;28.58;;;17.50;99.90;;;;;;5011722;28;20364;-71
2023/09/27 01:02:02;;;;;;;32.97;28.40;;;17.40;99.90;;;;;;4989992;28;20238;-71
2023/09/27 01:04:51;;;;;;;31.80;26.77;;;17.50;99.90;;;;;;5004771;28;20801;-72
2023/09/27 01:07:40;;;;;;;34.97;27.92;;;17.40;99.90;;;;;;5009083;28;20987;-70
2023/09/27 01:10:31;;;;;;;37.47;27.83;;;17.40;99.90;;;;;;5008709;28;20725;-73
2023/09/27 01:13:19;;;;;;;32.97;27.45;;;17.40;99.90;;;;;;5009653;28;20226;-71
2023/09/27 01:16:08;;;;;;;34.15;27.35;;;17.40;99.90;;;;;;4998306;28;20229;-72
2023/09/27 01:19:02;;;;;;;32.92;26.52;;;17.50;99.90;;;;;;4995683;28;20880;-70
2023/09/27 01:21:51;;;;;;;39.25;29.17;;;17.40;99.90;;;;;;5013235;28;20745;-71
2023/09/27 01:24:42;;;;;;;34.08;27.45;;;17.40;99.90;;;;;;5014182;28;20360;-72
2023/09/27 01:27:31;;;;;;;37.88;29.42;;;17.40;99.90;;;;;;5010810;28;20225;-71
2023/09/27 01:30:20;;;;;;;37.65;28.48;;;17.40;99.90;;;;;;4991832;28;20297;-71
2023/09/27 01:33:10;;;;;;;34.25;27.25;;;17.30;99.90;;;;;;4982841;28;20231;-72
2023/09/27 01:35:59;;;;;;;32.45;27.70;;;17.40;99.90;;;;;;4975376;28;20238;-71
2023/09/27 01:38:48;;;;;;;36.58;28.58;;;17.30;99.90;;;;;;4978663;28;20230;-71
2023/09/27 01:41:40;;;;;;;38.92;28.42;;;17.30;99.90;;;;;;4977061;28;20223;-71
2023/09/27 01:44:29;;;;;;;35.55;28.75;;;17.30;99.90;;;;;;4989171;28;20241;-68
2023/09/27 01:47:17;;;;;;;35.35;28.33;;;17.30;99.90;;;;;;4995446;28;20257;-71
2023/09/27 01:50:08;;;;;;;31.42;26.55;;;17.20;99.90;;;;;;4999053;28;20223;-70
2023/09/27 01:52:58;;;;;;;39.58;27.02;;;17.20;99.90;;;;;;5009136;28;20232;-71
2023/09/27 01:55:48;;;;;;;30.30;25.58;;;17.20;99.90;;;;;;5014601;28;20249;-70
2023/09/27 01:58:38;;;;;;;32.75;25.88;;;17.20;99.90;;;;;;5003760;28;20650;-70
2023/09/27 02:01:27;;;;;;;28.92;25.40;;;17.20;99.90;;;;;;5006415;28;20234;-70
2023/09/27 02:04:16;;;;;;;33.22;24.90;;;17.00;99.90;;;;;;5006859;28;20233;-71
2023/09/27 02:07:05;;;;;;;30.08;24.52;;;17.00;99.90;;;;;;5000148;28;20725;-70
2023/09/27 02:09:54;;;;;;;29.40;24.90;;;17.10;99.90;;;;;;4989272;28;20235;-71
2023/09/27 02:12:44;;;;;;;32.28;25.73;;;17.10;99.90;;;;;;5009287;28;20322;-73
2023/09/27 02:15:35;;;;;;;31.90;24.25;;;17.00;99.90;;;;;;5013691;28;20875;-71
2023/09/27 02:18:25;;;;;;;31.00;24.27;;;17.00;99.90;;;;;;4995832;28;20245;-71
2023/09/27 02:21:14;;;;;;;28.40;24.45;;;17.00;99.90;;;;;;5006777;28;20694;-71
2023/09/27 02:24:03;;;;;;;27.92;24.08;;;17.00;99.90;;;;;;5001638;28;20222;-72
2023/09/27 02:26:53;;;;;;;33.28;23.08;;;17.00;99.90;;;;;;4990350;28;20230;-70
2023/09/27 02:29:42;;;;;;;29.65;23.27;;;17.00;99.90;;;;;;4995712;28;21699;-71
2023/09/27 02:32:32;;;;;;;33.70;23.38;;;17.00;99.90;;;;;;4997742;28;20223;-73
2023/09/27 02:35:21;;;;;;;26.75;23.40;;;17.00;99.90;;;;;;4997772;28;20245;-72
2023/09/27 02:38:10;;;;;;;28.85;23.70;;;17.00;99.90;;;;;;5002346;28;20238;-68
2023/09/27 02:40:59;;;;;;;29.00;23.30;;;17.00;99.90;;;;;;4994085;28;20233;-71
2023/09/27 02:43:48;;;;;;;28.80;22.98;;;17.00;99.90;;;;;;5012094;28;20229;-72
2023/09/27 02:46:37;;;;;;;27.00;23.15;;;16.90;99.90;;;;;;5006675;28;20253;-72
2023/09/27 02:49:34;;;;;;;31.10;23.63;;;16.90;99.90;;;;;;5013968;28;20255;-71
2023/09/27 02:52:23;;;;;;;26.42;23.60;;;16.90;99.90;;;;;;5009266;28;20245;-71
2023/09/27 02:55:12;;;;;;;28.65;22.35;;;16.80;99.90;;;;;;4983139;28;20216;-72
2023/09/27 02:58:01;;;;;;;34.33;23.30;;;16.70;99.90;;;;;;4976527;28;20231;-71
2023/09/27 03:00:50;;;;;;;31.63;23.25;;;16.70;99.90;;;;;;4993634;28;20257;-73
2023/09/27 03:03:39;;;;;;;26.73;22.98;;;16.70;99.90;;;;;;4992114;28;20230;-73
2023/09/27 03:06:29;;;;;;;26.33;23.38;;;16.60;99.90;;;;;;4984319;28;20249;-72
2023/09/27 03:09:19;;;;;;;26.40;22.27;;;16.70;99.90;;;;;;4992984;28;20230;-71
2023/09/27 03:12:08;;;;;;;28.05;23.23;;;16.70;99.90;;;;;;4977105;28;20227;-72
2023/09/27 03:14:58;;;;;;;30.17;22.50;;;16.70;99.90;;;;;;4989522;28;20223;-70
2023/09/27 03:17:49;;;;;;;27.48;23.17;;;16.70;99.90;;;;;;4991185;28;20277;-73
2023/09/27 03:20:38;;;;;;;28.98;22.30;;;16.70;99.90;;;;;;4987000;28;20254;-71
2023/09/27 03:23:28;;;;;;;29.98;23.60;;;16.80;99.90;;;;;;4994833;28;20381;-70
2023/09/27 03:26:17;;;;;;;26.77;22.08;;;16.80;99.90;;;;;;4978951;28;20230;-71
2023/09/27 03:29:06;;;;;;;28.63;22.85;;;16.70;99.90;;;;;;5005874;28;20394;-72
2023/09/27 03:31:55;;;;;;;29.83;23.38;;;16.60;99.90;;;;;;5005114;28;20642;-71
2023/09/27 03:34:44;;;;;;;32.08;22.25;;;16.60;99.90;;;;;;4991856;28;20596;-72
2023/09/27 03:37:34;;;;;;;28.25;22.60;;;16.60;99.90;;;;;;4989931;28;20707;-71
2023/09/27 03:40:25;;;;;;;29.30;23.52;;;16.60;99.90;;;;;;5005148;28;20223;-71
2023/09/27 03:43:13;;;;;;;26.35;22.75;;;16.60;99.90;;;;;;4996972;28;20226;-71
2023/09/27 03:46:03;;;;;;;30.13;22.15;;;16.60;99.90;;;;;;5015856;28;20586;-71
2023/09/27 03:48:53;;;;;;;29.08;22.75;;;16.50;99.90;;;;;;5007514;28;20218;-71
2023/09/27 03:51:42;;;;;;;28.40;23.42;;;16.60;99.90;;;;;;4987681;28;20226;-71
2023/09/27 03:54:32;;;;;;;32.05;23.48;;;16.50;99.90;;;;;;5009717;28;20229;-71
2023/09/27 03:57:22;;;;;;;29.95;24.00;;;16.50;99.90;;;;;;5010898;28;20229;-71
2023/09/27 04:00:14;;;;;;;34.80;22.48;;;16.50;99.90;;;;;;5010797;28;20230;-72
2023/09/27 04:03:06;;;;;;;27.23;23.42;;;16.40;99.90;;;;;;5015593;28;20233;-72
2023/09/27 04:05:58;;;;;;;30.20;23.20;;;16.40;99.90;;;;;;4997670;28;20226;-72
2023/09/27 04:08:47;;;;;;;31.00;23.63;;;16.40;99.90;;;;;;5008546;28;20772;-72
2023/09/27 04:11:36;;;;;;;35.42;24.50;;;16.40;99.90;;;;;;5015443;28;20681;-71
2023/09/27 04:14:26;;;;;;;28.05;24.13;;;16.40;99.90;;;;;;5010099;28;20713;-72
2023/09/27 04:17:15;;;;;;;35.53;24.63;;;16.30;99.90;;;;;;5005954;28;20267;-72
2023/09/27 04:20:14;;;;;;;31.13;26.75;;;16.30;99.90;;;;;;4995798;28;20226;-73
2023/09/27 04:23:03;;;;;;;30.42;25.95;;;16.30;99.90;;;;;;4994719;28;20237;-72
2023/09/27 04:25:52;;;;;;;31.00;26.08;;;16.40;99.90;;;;;;5010460;28;20222;-72
2023/09/27 04:28:41;;;;;;;33.00;26.00;;;16.30;99.90;;;;;;4998579;28;20902;-73
2023/09/27 04:31:32;;;;;;;30.52;26.13;;;16.20;99.90;;;;;;5010209;28;20241;-72
2023/09/27 04:34:21;;;;;;;34.72;26.23;;;16.30;99.90;;;;;;4994533;28;20238;-73
2023/09/27 04:37:10;;;;;;;30.80;25.85;;;16.30;99.90;;;;;;4993140;28;20780;-72
2023/09/27 04:39:58;;;;;;;35.63;26.25;;;16.30;99.90;;;;;;4996767;28;20230;-72
2023/09/27 04:42:48;;;;;;;30.58;25.83;;;16.20;99.90;;;;;;5003460;28;20225;-71
2023/09/27 04:45:37;;;;;;;33.42;25.88;;;16.20;99.90;;;;;;4998935;28;20326;-72
2023/09/27 04:48:28;;;;;;;35.22;26.92;;;16.30;99.90;;;;;;4997358;28;20356;-72
2023/09/27 04:51:16;;;;;;;34.33;25.67;;;16.30;99.90;;;;;;4999143;28;20234;-73
2023/09/27 04:54:07;;;;;;;35.15;25.83;;;16.30;99.90;;;;;;5011323;28;20218;-74
2023/09/27 04:56:56;;;;;;;37.17;26.73;;;16.40;99.90;;;;;;4992938;28;21089;-75
2023/09/27 04:59:45;;;;;;;33.05;26.13;;;16.40;99.90;;;;;;4990743;28;20930;-74
2023/09/27 05:02:33;;;;;;;33.85;25.85;;;16.40;99.90;;;;;;4993010;28;20348;-71
2023/09/27 05:05:24;;;;;;;31.92;26.00;;;16.40;99.90;;;;;;5007133;28;21056;-72
2023/09/27 05:08:13;;;;;;;35.58;26.25;;;16.40;99.90;;;;;;5001732;28;20226;-74
2023/09/27 05:11:02;;;;;;;32.63;25.38;;;16.40;99.90;;;;;;4996075;28;20332;-72
2023/09/27 05:13:51;;;;;;;32.15;24.77;;;16.50;99.90;;;;;;5005364;28;20237;-73
2023/09/27 05:16:40;;;;;;;31.52;25.10;;;16.50;99.90;;;;;;4990186;28;20254;-74
2023/09/27 05:19:29;;;;;;;29.52;25.50;;;16.50;99.90;;;;;;4992757;28;20222;-72
2023/09/27 05:22:20;;;;;;;29.10;25.30;;;16.50;99.90;;;;;;5007875;28;20374;-72
2023/09/27 05:25:10;;;;;;;37.38;25.60;;;16.50;99.90;;;;;;5008188;28;20313;-74
2023/09/27 05:28:00;;;;;;;33.97;26.05;;;16.50;99.90;;;;;;5000070;28;20230;-75
2023/09/27 05:30:48;;;;;;;29.45;25.38;;;16.60;99.90;;;;;;4995314;28;20223;-74
2023/09/27 05:33:38;;;;;;;34.63;25.80;;;16.70;99.90;;;;;;4988058;28;20314;-70
2023/09/27 05:36:27;;;;;;;33.30;24.73;;;16.70;99.90;;;;;;4998071;28;20754;-71
2023/09/27 05:39:17;;;;;;;33.70;25.35;;;16.80;99.90;;;;;;5005503;28;20600;-71
2023/09/27 05:42:06;;;;;;;32.42;26.10;;;16.80;99.90;;;;;;4995965;28;20980;-72
2023/09/27 05:44:56;;;;;;;32.35;25.67;;;16.80;99.90;;;;;;4999657;28;20218;-72
2023/09/27 05:47:44;;;;;;;34.95;26.38;;;16.90;99.90;;;;;;4996073;28;20223;-73
2023/09/27 05:50:34;;;;;;;34.90;26.30;;;16.90;99.90;;;;;;5016062;28;20219;-74
2023/09/27 05:53:23;;;;;;;30.98;25.38;;;16.90;99.90;;;;;;4987995;28;20605;-72
2023/09/27 05:56:13;;;;;;;33.53;25.48;;;16.90;99.90;;;;;;5008241;28;20230;-70
2023/09/27 05:59:03;;;;;;;33.80;25.17;;;17.00;99.90;;;;;;4999192;28;20222;-72
2023/09/27 06:01:52;;;;;;;29.65;25.33;;;17.00;99.90;;;;;;5001295;28;20230;-70
2023/09/27 06:04:44;;;;;;;37.75;25.92;;;17.00;99.90;;;;;;5000787;28;20222;-70
2023/09/27 06:07:34;;;;;;;34.90;25.73;;;17.10;99.90;;;;;;4997768;28;20231;-69
2023/09/27 06:10:23;;;;;;;34.75;25.63;;;17.10;99.90;;;;;;4994757;28;20230;-71
2023/09/27 06:13:14;;;;;;;34.22;25.60;;;17.10;99.90;;;;;;4999684;28;20241;-72
2023/09/27 06:16:04;;;;;;;36.65;25.90;;;17.20;99.90;;;;;;4999961;28;20845;-71
2023/09/27 06:18:53;;;;;;;32.90;25.27;;;17.30;99.90;;;;;;5015549;28;20229;-71
2023/09/27 06:21:43;;;;;;;33.58;24.85;;;17.30;99.90;;;;;;4998085;28;20890;-71
2023/09/27 06:24:32;;;;;;;29.70;25.77;;;17.30;99.90;;;;;;5015139;28;20265;-69
2023/09/27 06:27:21;;;;;;;32.53;24.58;;;17.40;99.90;;;;;;4997724;28;20229;-71
2023/09/27 06:30:13;;;;;;;37.10;26.23;;;17.40;99.90;;;;;;5002699;28;20293;-71
2023/09/27 06:33:02;;;;;;;36.08;25.45;;;17.50;99.90;;;;;;5006067;28;20237;-70
2023/09/27 06:35:52;;;;;;;47.85;25.90;;;17.50;99.90;;;;;;5008772;28;20284;-72
2023/09/27 06:38:40;;;;;;;35.10;25.17;;;17.60;99.90;;;;;;5007044;28;20319;-72
2023/09/27 06:41:34;;;;;;;35.22;25.80;;;17.60;99.90;;;;;;5013951;28;20226;-71
2023/09/27 06:44:23;;;;;;;30.85;24.17;;;17.70;99.90;;;;;;5003903;28;20222;-72
2023/09/27 06:47:13;;;;;;;33.03;24.58;;;17.80;99.90;;;;;;5012054;28;20291;-71
2023/09/27 06:50:03;;;;;;;31.17;23.52;;;17.80;99.90;;;;;;4998405;28;20622;-70
2023/09/27 06:52:52;;;;;;;31.52;24.77;;;17.80;99.90;;;;;;5006098;28;20253;-69
2023/09/27 06:55:59;;;;;;;31.73;24.08;;;17.90;99.90;;;;;;5019858;28;20217;-69
2023/09/27 06:58:48;;;;;;;29.40;24.90;;;18.00;99.90;;;;;;5003797;28;20222;-70
2023/09/27 07:01:38;;;;;;;32.60;24.58;;;18.00;99.90;;;;;;4999139;28;20253;-70
2023/09/27 07:04:28;;;;;;;29.15;23.23;;;18.10;99.90;;;;;;4998285;28;20225;-70
2023/09/27 07:07:17;;;;;;;27.77;23.65;;;18.20;99.90;;;;;;4989144;28;20223;-69
2023/09/27 07:10:07;;;;;;;38.17;23.13;;;18.20;99.90;;;;;;4992627;28;20282;-70
2023/09/27 07:12:56;;;;;;;35.38;23.05;;;18.30;99.90;;;;;;4980768;28;20594;-71
2023/09/27 07:15:46;;;;;;;37.20;23.45;;;18.30;99.90;;;;;;4987706;28;20261;-71
2023/09/27 07:18:35;;;;;;;28.05;23.10;;;18.40;99.90;;;;;;4975746;28;20237;-71
2023/09/27 07:21:26;;;;;;;30.15;24.40;;;18.50;99.90;;;;;;4996417;28;20232;-72
2023/09/27 07:24:14;;;;;;;30.80;23.52;;;18.50;99.90;;;;;;4979697;28;20230;-72
2023/09/27 07:27:03;;;;;;;31.80;22.33;;;18.60;99.90;;;;;;4990933;28;20257;-73
2023/09/27 07:29:53;;;;;;;28.77;22.58;;;18.70;99.90;;;;;;4981332;28;20918;-74
2023/09/27 07:32:43;;;;;;;29.05;21.90;;;18.70;99.90;;;;;;4992956;28;20569;-72
2023/09/27 07:35:34;;;;;;;28.70;22.20;;;18.80;99.90;;;;;;4985309;28;20231;-72
2023/09/27 07:38:25;;;;;;;26.58;21.77;;;18.90;99.90;;;;;;4992708;28;20229;-73
2023/09/27 07:41:16;;;;;;;28.38;22.63;;;18.90;99.90;;;;;;4995151;28;21013;-73
2023/09/27 07:44:07;;;;;;;27.98;21.38;;;19.10;99.90;;;;;;4980465;28;20227;-73
2023/09/27 07:46:56;;;;;;;27.00;21.52;;;19.20;99.90;;;;;;4996924;28;20298;-72
2023/09/27 07:49:45;;;;;;;28.98;21.40;;;19.60;99.90;;;;;;4983698;28;20216;-72
2023/09/27 07:52:34;;;;;;;27.60;20.98;;;20.00;99.90;;;;;;5000481;28;20248;-75
2023/09/27 07:55:25;;;;;;;26.15;20.85;;;20.30;99.90;;;;;;4996956;28;20238;-73
2023/09/27 07:58:14;;;;;;;26.08;20.25;;;20.60;99.90;;;;;;4990966;28;20229;-74
2023/09/27 08:01:04;;;;;;;31.13;20.58;;;20.80;99.90;;;;;;4978032;28;20254;-73
2023/09/27 08:04:00;;;;;;;22.65;19.40;;;21.20;99.90;;;;;;4992606;28;20222;-74
2023/09/27 08:06:49;;;;;;;23.63;19.52;;;21.50;99.90;;;;;;4973508;28;20826;-72
2023/09/27 08:09:38;;;;;;;25.55;19.83;;;21.70;99.90;;;;;;4977654;28;20226;-73
2023/09/27 08:12:32;;;;;;;25.35;19.73;;;21.80;99.90;;;;;;4995552;28;20229;-72
2023/09/27 08:15:20;;;;;;;32.10;19.85;;;22.10;99.90;;;;;;4985499;28;20219;-73
2023/09/27 08:18:10;;;;;;;25.23;19.45;;;22.20;99.90;;;;;;4988748;28;20241;-73
2023/09/27 08:20:59;;;;;;;27.60;22.35;;;22.20;99.90;;;;;;4979332;28;20227;-74
2023/09/27 08:23:48;;;;;;;36.72;20.80;;;22.60;99.90;;;;;;4979609;28;20223;-74
2023/09/27 08:26:37;;;;;;;23.00;18.98;;;23.00;99.90;;;;;;4976467;28;20222;-73
2023/09/27 08:29:28;;;;;;;27.10;18.38;;;23.30;99.90;;;;;;4980862;28;20250;-71
2023/09/27 08:32:17;;;;;;;25.98;18.23;;;23.50;99.90;;;;;;4983536;28;20242;-71
2023/09/27 08:35:07;;;;;;;22.98;17.27;;;23.70;99.90;;;;;;4986885;28;20806;-72
2023/09/27 08:37:56;;;;;;;26.30;18.00;;;24.20;99.90;;;;;;4980508;28;20229;-72
2023/09/27 08:40:51;;;;;;;24.52;18.30;;;24.60;99.90;;;;;;4977593;28;20634;-72
2023/09/27 08:43:40;;;;;;;25.77;18.17;;;24.60;99.90;;;;;;4981693;28;20282;-71
2023/09/27 08:46:34;;;;;;;24.92;18.17;;;25.20;99.90;;;;;;5008210;28;20289;-72
2023/09/27 08:49:25;;;;;;;25.77;17.48;;;25.30;99.90;;;;;;5008203;28;20227;-71
2023/09/27 08:52:14;;;;;;;21.77;17.00;;;25.50;99.90;;;;;;4995322;28;20320;-71
2023/09/27 08:55:05;;;;;;;23.65;18.05;;;25.60;99.90;;;;;;4998169;28;20709;-71
2023/09/27 08:57:56;;;;;;;22.60;17.83;;;25.40;99.90;;;;;;4995364;28;20264;-71
2023/09/27 09:00:45;;;;;;;29.20;18.33;;;24.90;99.90;;;;;;4979140;28;20272;-71
2023/09/27 09:03:38;;;;;;;19.77;17.20;;;24.30;99.90;;;;;;4983883;28;20253;-72
2023/09/27 09:06:29;;;;;;;23.63;18.20;;;23.70;99.90;;;;;;4999224;28;20245;-71
2023/09/27 09:09:18;;;;;;;25.15;18.92;;;23.00;99.90;;;;;;4996295;28;20223;-71
2023/09/27 09:12:09;;;;;;;25.35;18.83;;;23.00;99.90;;;;;;5011938;28;20316;-73
2023/09/27 09:14:58;;;;;;;19.52;16.90;;;22.80;99.90;;;;;;4995136;28;20410;-71
2023/09/27 09:17:52;;;;;;;20.73;16.00;;;22.70;99.90;;;;;;4991817;28;20226;-70
2023/09/27 09:20:54;;;;;;;26.02;16.55;;;22.50;99.90;;;;;;5011754;28;20703;-71
2023/09/27 09:23:47;;;;;;;26.33;17.65;;;22.50;99.90;;;;;;4999471;28;20717;-73
2023/09/27 09:26:36;;;;;;;23.25;16.60;;;22.50;99.90;;;;;;5008269;28;20300;-72
2023/09/27 09:29:25;;;;;;;20.35;16.83;;;22.50;99.90;;;;;;4993025;28;20226;-71
2023/09/27 09:32:17;;;;;;;21.33;17.20;;;22.30;99.90;;;;;;5012666;28;20677;-71
2023/09/27 09:35:09;;;;;;;26.33;17.15;;;22.30;99.90;;;;;;5008139;28;20234;-71
2023/09/27 09:38:00;;;;;;;24.13;16.38;;;22.30;99.90;;;;;;5005053;28;20223;-71
2023/09/27 09:40:56;;;;;;;22.75;16.35;;;22.20;99.90;;;;;;5000173;28;20685;-72
2023/09/27 09:43:45;;;;;;;26.42;16.40;;;22.20;99.90;;;;;;5007459;28;20246;-71
2023/09/27 09:46:34;;;;;;;26.75;16.40;;;22.30;99.90;;;;;;4994811;28;20231;-71
2023/09/27 09:49:23;;;;;;;22.52;15.45;;;22.10;99.90;;;;;;5012777;28;20754;-73
2023/09/27 09:52:13;;;;;;;18.80;16.65;;;22.20;99.90;;;;;;5006525;28;20222;-71
2023/09/27 09:55:06;;;;;;;21.77;15.25;;;22.10;99.90;;;;;;5003038;28;20226;-72
2023/09/27 09:58:25;;;;;;;24.15;14.90;;;22.20;99.90;;;;;;4979407;28;20222;-72
2023/09/27 10:01:21;;;;;;;22.85;15.80;;;22.20;99.90;;;;;;5000300;28;20223;-72
2023/09/27 10:04:11;;;;;;;24.10;15.00;;;22.30;99.90;;;;;;5017125;28;20225;-71
2023/09/27 10:07:02;;;;;;;22.30;14.60;;;22.30;99.90;;;;;;5011019;28;20268;-71
2023/09/27 10:09:52;;;;;;;21.13;15.68;;;22.30;99.90;;;;;;5003630;28;20230;-72
2023/09/27 10:12:44;;;;;;;19.20;15.18;;;22.40;99.90;;;;;;5015545;28;20230;-71
2023/09/27 10:15:34;;;;;;;34.20;15.80;;;22.40;99.90;;;;;;5010317;28;20237;-71
2023/09/27 10:18:36;;;;;;;20.55;14.90;;;22.40;99.90;;;;;;4995026;28;20226;-69
2023/09/27 10:21:25;;;;;;;20.52;13.95;;;22.50;99.90;;;;;;5005234;28;20274;-70
2023/09/27 10:24:27;;;;;;;18.40;14.05;;;22.50;99.90;;;;;;5005392;28;20233;-71
2023/09/27 10:27:17;;;;;;;24.88;15.13;;;22.50;99.90;;;;;;5001737;28;20237;-71
2023/09/27 10:30:09;;;;;;;24.25;13.68;;;22.50;99.90;;;;;;5002632;28;20226;-71
2023/09/27 10:33:31;;;;;;;18.10;13.38;;;22.50;99.90;;;;;;5002212;28;20770;-71
2023/09/27 10:36:32;;;;;;;23.30;13.60;;;22.60;99.90;;;;;;5013905;28;20233;-70
2023/09/27 10:39:22;;;;;;;16.85;12.05;;;22.80;99.90;;;;;;5012329;28;20225;-70
2023/09/27 10:42:13;;;;;;;16.17;11.88;;;22.80;99.90;;;;;;4999680;28;20246;-71
2023/09/27 10:45:11;;;;;;;23.50;11.85;;;22.80;99.90;;;;;;5001069;28;20230;-73
2023/09/27 10:48:15;;;;;;;15.50;11.80;;;22.80;99.90;;;;;;4991721;28;21409;-73
2023/09/27 10:51:04;;;;;;;17.35;11.90;;;22.90;99.90;;;;;;5002382;28;20249;-71
2023/09/27 10:53:53;;;;;;;20.35;12.48;;;22.90;99.90;;;;;;5013043;28;20264;-72
2023/09/27 10:56:44;;;;;;;20.58;11.60;;;22.90;99.90;;;;;;4999628;28;20606;-72
2023/09/27 10:59:33;;;;;;;20.23;11.45;;;22.90;99.90;;;;;;5015155;28;20221;-72
2023/09/27 11:02:31;;;;;;;16.83;11.63;;;23.00;99.90;;;;;;5000863;28;20272;-72
2023/09/27 11:05:25;;;;;;;15.77;10.85;;;22.90;99.90;;;;;;5011160;28;20272;-71
2023/09/27 11:08:21;;;;;;;20.48;11.35;;;23.10;99.90;;;;;;5020569;28;20767;-72
2023/09/27 11:11:11;;;;;;;17.08;10.50;;;23.10;99.90;;;;;;5003887;28;20218;-71
2023/09/27 11:14:01;;;;;;;13.73;9.23;;;23.00;99.90;;;;;;5009897;28;21038;-69
2023/09/27 11:16:49;;;;;;;16.17;10.45;;;23.10;99.90;;;;;;4999902;28;20218;-71
2023/09/27 11:19:40;;;;;;;18.58;10.13;;;23.10;99.90;;;;;;5010037;28;20229;-72
2023/09/27 11:22:30;;;;;;;20.33;10.52;;;23.20;99.90;;;;;;5007714;28;20330;-72
2023/09/27 11:25:28;;;;;;;13.27;9.68;;;23.10;99.90;;;;;;5003462;28;20230;-72
2023/09/27 11:28:18;;;;;;;12.75;9.80;;;23.20;99.90;;;;;;4993318;28;20599;-73
2023/09/27 11:31:07;;;;;;;17.67;10.13;;;23.20;99.90;;;;;;5010489;28;20243;-71
2023/09/27 11:34:11;;;;;;;22.23;10.02;;;23.40;99.90;;;;;;4994607;28;20219;-71
2023/09/27 11:37:03;;;;;;;16.17;9.57;;;23.40;99.90;;;;;;5011790;28;20712;-72
2023/09/27 11:39:54;;;;;;;16.98;9.75;;;23.40;99.90;;;;;;5007353;28;20230;-71
2023/09/27 11:42:50;;;;;;;15.50;10.30;;;23.40;99.90;;;;;;5005792;28;20230;-70
2023/09/27 11:45:46;;;;;;;19.30;10.10;;;23.50;99.90;;;;;;5010887;28;20236;-71
2023/09/27 11:48:36;;;;;;;14.75;9.38;;;23.40;99.90;;;;;;4996849;28;20319;-72
2023/09/27 11:51:24;;;;;;;12.48;9.45;;;23.60;99.90;;;;;;5007831;28;20226;-69
2023/09/27 11:54:16;;;;;;;14.90;10.07;;;23.70;99.90;;;;;;5005422;28;20254;-71
2023/09/27 11:57:05;;;;;;;15.68;9.80;;;23.50;99.90;;;;;;5004768;28;21448;-71
2023/09/27 11:59:54;;;;;;;17.65;10.40;;;23.50;99.90;;;;;;5003431;28;20257;-70
2023/09/27 12:02:43;;;;;;;19.00;10.18;;;23.70;99.90;;;;;;5007497;28;20226;-71
2023/09/27 12:05:45;;;;;;;13.63;9.73;;;23.80;99.90;;;;;;5005058;28;20325;-69
2023/09/27 12:08:36;;;;;;;17.67;9.73;;;23.70;99.90;;;;;;5009145;28;20230;-69
2023/09/27 12:11:26;;;;;;;16.52;9.60;;;23.80;99.90;;;;;;5010715;28;20237;-71
2023/09/27 12:14:15;;;;;;;15.27;9.63;;;23.70;99.90;;;;;;4997231;28;20250;-71
2023/09/27 12:17:04;;;;;;;18.90;9.60;;;23.60;99.90;;;;;;5002410;28;20233;-70
2023/09/27 12:19:53;;;;;;;18.77;10.02;;;23.60;99.90;;;;;;5014627;28;20218;-70
2023/09/27 12:22:42;;;;;;;22.70;10.15;;;23.60;99.90;;;;;;4998191;28;20313;-70
2023/09/27 12:25:33;;;;;;;13.55;9.50;;;23.60;99.90;;;;;;5013402;28;20226;-70
2023/09/27 12:28:23;;;;;;;17.40;9.38;;;23.70;99.90;;;;;;4993803;28;20230;-71
2023/09/27 12:31:13;;;;;;;17.95;9.57;;;23.70;99.90;;;;;;4993842;28;20789;-72
2023/09/27 12:34:02;;;;;;;24.52;10.35;;;23.70;99.90;;;;;;4996044;28;20261;-71
2023/09/27 12:36:50;;;;;;;14.95;9.43;;;23.80;99.90;;;;;;5001395;28;20249;-72
2023/09/27 12:39:39;;;;;;;13.27;8.93;;;24.00;99.90;;;;;;4996833;28;20313;-71
2023/09/27 12:42:28;;;;;;;16.08;9.43;;;23.80;99.90;;;;;;4992848;28;20758;-70
2023/09/27 12:45:18;;;;;;;19.77;9.07;;;23.90;99.90;;;;;;4998065;28;20590;-72
2023/09/27 12:48:08;;;;;;;14.80;9.52;;;23.80;99.90;;;;;;5014696;28;20331;-71
2023/09/27 12:50:57;;;;;;;11.00;9.07;;;23.80;99.90;;;;;;4992268;28;20226;-71
2023/09/27 12:53:46;;;;;;;16.60;9.18;;;23.90;99.90;;;;;;5000328;28;20313;-71
2023/09/27 12:56:35;;;;;;;14.93;9.07;;;23.80;99.90;;;;;;5013347;28;20371;-71
2023/09/27 12:59:25;;;;;;;13.52;9.25;;;23.70;99.90;;;;;;4995244;28;20248;-70
2023/09/27 13:02:17;;;;;;;16.88;9.07;;;23.70;99.90;;;;;;5013053;28;20690;-70
2023/09/27 13:05:07;;;;;;;10.05;8.48;;;23.80;99.90;;;;;;5012635;28;20230;-71
2023/09/27 13:07:56;;;;;;;12.38;8.00;;;23.80;99.90;;;;;;5001202;28;20261;-70
2023/09/27 13:10:45;;;;;;;15.88;8.13;;;23.90;99.90;;;;;;5008871;28;20265;-70
2023/09/27 13:13:34;;;;;;;12.18;8.57;;;24.00;99.90;;;;;;5001813;28;20256;-70
2023/09/27 13:16:23;;;;;;;15.68;7.93;;;23.90;99.90;;;;;;4997613;28;20233;-71
2023/09/27 13:19:14;;;;;;;13.25;7.47;;;24.00;99.90;;;;;;4995451;28;20210;-69
2023/09/27 13:22:03;;;;;;;11.57;8.00;;;24.10;99.90;;;;;;4998970;28;20253;-71
2023/09/27 13:24:52;;;;;;;12.40;7.53;;;24.00;99.90;;;;;;4997187;28;20840;-71
2023/09/27 13:27:41;;;;;;;10.35;7.35;;;24.00;99.90;;;;;;5004616;28;20229;-72
2023/09/27 13:30:31;;;;;;;12.77;7.68;;;24.00;99.90;;;;;;4980626;28;20384;-71
2023/09/27 13:33:25;;;;;;;15.55;7.65;;;24.10;99.90;;;;;;4994094;28;20233;-71
2023/09/27 13:36:17;;;;;;;16.45;7.90;;;24.20;99.90;;;;;;4999765;28;20229;-73
2023/09/27 13:39:13;;;;;;;16.42;7.95;;;24.30;99.90;;;;;;4994489;28;20728;-72
2023/09/27 13:42:03;;;;;;;14.15;7.00;;;24.20;99.90;;;;;;4998341;28;20222;-71
2023/09/27 13:44:52;;;;;;;15.15;7.70;;;24.20;99.90;;;;;;4998011;28;20332;-72
2023/09/27 13:47:41;;;;;;;14.77;7.38;;;24.10;99.90;;;;;;4993065;28;20615;-72
2023/09/27 13:50:33;;;;;;;14.65;7.15;;;24.00;99.90;;;;;;5012055;28;20594;-72
2023/09/27 13:53:24;;;;;;;10.27;5.93;;;24.10;99.90;;;;;;5009777;28;20250;-71
2023/09/27 13:56:13;;;;;;;10.05;6.38;;;24.20;99.90;;;;;;5010706;28;20263;-71
2023/09/27 13:59:03;;;;;;;11.55;7.28;;;24.40;99.90;;;;;;5006026;28;20237;-71
2023/09/27 14:01:52;;;;;;;12.68;6.60;;;24.20;99.90;;;;;;5011134;28;20257;-72
2023/09/27 14:04:41;;;;;;;11.52;6.90;;;24.20;99.90;;;;;;5002052;28;20218;-72
2023/09/27 14:07:31;;;;;;;12.57;6.90;;;24.20;99.90;;;;;;5012390;28;20223;-71
2023/09/27 14:10:23;;;;;;;12.23;7.45;;;24.20;99.90;;;;;;4997774;28;20399;-72
2023/09/27 14:13:11;;;;;;;17.88;7.80;;;24.20;99.90;;;;;;5000014;28;20219;-73
2023/09/27 14:16:00;;;;;;;9.45;6.75;;;24.20;99.90;;;;;;5019136;28;20237;-71
2023/09/27 14:18:50;;;;;;;9.80;7.53;;;24.30;99.90;;;;;;4995385;28;20226;-71
2023/09/27 14:21:39;;;;;;;13.73;7.95;;;24.20;99.90;;;;;;4993477;28;20996;-72
2023/09/27 14:24:31;;;;;;;16.55;7.78;;;24.20;99.90;;;;;;5005792;28;20248;-72
2023/09/27 14:27:21;;;;;;;15.13;8.65;;;24.20;99.90;;;;;;5006457;28;20225;-71